Time;durP1;ratioP1;P1;durP2;ratioP2;P2;SDS_P1;SDS_P2;PMS_P1;PMS_P2;Temp;Humidity;BMP_temperature;BMP_pressure;BME280_temperature;BME280_humidity;BME280_pressure;Samples;Min_cycle;Max_cycle;Signal;HPM_P1;HPM_P2
2021/09/07 00:01:44;;;;;;;2.33;1.92;;;23.50;57.80;;;;;;6241199;28;20032;-73
2021/09/07 00:04:45;;;;;;;2.70;2.00;;;23.50;57.80;;;;;;6241008;28;20487;-73
2021/09/07 00:07:45;;;;;;;2.33;2.10;;;23.50;57.80;;;;;;6241164;28;20484;-73
2021/09/07 00:10:46;;;;;;;2.03;1.83;;;23.50;57.80;;;;;;6240926;28;20159;-73
2021/09/07 00:13:46;;;;;;;2.88;2.10;;;23.50;57.80;;;;;;6237180;28;20034;-73
2021/09/07 00:16:47;;;;;;;2.72;1.95;;;23.50;57.80;;;;;;6227712;28;20044;-73
2021/09/07 00:19:50;;;;;;;2.25;1.73;;;23.50;57.80;;;;;;6239229;28;20140;-74
2021/09/07 00:22:50;;;;;;;2.05;1.75;;;23.50;57.80;;;;;;6240995;28;20026;-73
2021/09/07 00:25:51;;;;;;;2.03;1.65;;;23.50;57.80;;;;;;6239108;28;20030;-73
2021/09/07 00:28:52;;;;;;;1.77;1.63;;;23.50;57.80;;;;;;6239462;28;20025;-73
2021/09/07 00:31:53;;;;;;;2.38;1.80;;;23.50;57.80;;;;;;6240728;28;20025;-73
2021/09/07 00:34:53;;;;;;;3.45;1.90;;;23.50;57.80;;;;;;6239281;28;20026;-74
2021/09/07 00:37:54;;;;;;;2.80;1.92;;;23.50;57.80;;;;;;6240563;28;20033;-73
2021/09/07 00:40:54;;;;;;;2.22;1.80;;;23.50;57.90;;;;;;6240883;28;20101;-73
2021/09/07 00:43:55;;;;;;;2.65;1.88;;;23.50;58.50;;;;;;6240655;28;20030;-74
2021/09/07 00:46:59;;;;;;;2.70;1.58;;;23.50;57.80;;;;;;6240945;28;20053;-73
2021/09/07 00:50:00;;;;;;;2.20;1.70;;;23.50;57.80;;;;;;6240561;28;20029;-73
2021/09/07 00:53:00;;;;;;;2.33;1.75;;;23.50;58.00;;;;;;6238974;28;20395;-73
2021/09/07 00:56:01;;;;;;;1.67;1.55;;;23.50;57.80;;;;;;6230945;28;20161;-73
2021/09/07 00:59:02;;;;;;;1.75;1.35;;;23.50;57.80;;;;;;6246209;28;20113;-73
2021/09/07 01:02:04;;;;;;;1.95;1.70;;;23.50;57.80;;;;;;6227181;28;20052;-73
2021/09/07 01:05:06;;;;;;;2.10;1.75;;;23.50;57.80;;;;;;6231638;28;20534;-73
2021/09/07 01:08:07;;;;;;;2.78;1.83;;;23.50;57.80;;;;;;6247974;28;20033;-73
2021/09/07 01:11:07;;;;;;;2.00;1.58;;;23.50;57.80;;;;;;6243875;28;20092;-73
2021/09/07 01:14:08;;;;;;;2.40;1.63;;;23.50;57.80;;;;;;6235253;28;20383;-73
2021/09/07 01:17:14;;;;;;;2.10;1.70;;;23.50;57.80;;;;;;6222868;28;20438;-73
2021/09/07 01:20:14;;;;;;;2.28;1.75;;;23.50;58.50;;;;;;6244749;28;20093;-73
2021/09/07 01:23:15;;;;;;;1.80;1.63;;;23.50;57.80;;;;;;6244425;28;20024;-73
2021/09/07 01:26:17;;;;;;;1.60;1.45;;;23.50;57.80;;;;;;6244553;28;20105;-73
2021/09/07 01:29:18;;;;;;;2.80;1.80;;;23.50;57.80;;;;;;6242739;28;20113;-73
2021/09/07 01:32:21;;;;;;;2.13;1.65;;;23.50;57.90;;;;;;6243098;28;20022;-73
2021/09/07 01:35:22;;;;;;;1.90;1.58;;;23.50;57.80;;;;;;6242850;28;20026;-73
2021/09/07 01:38:23;;;;;;;2.05;1.65;;;23.50;57.80;;;;;;6244157;28;20112;-73
2021/09/07 01:41:23;;;;;;;2.65;1.80;;;23.50;57.80;;;;;;6242937;28;20116;-73
2021/09/07 01:44:24;;;;;;;1.70;1.50;;;23.50;57.80;;;;;;6244303;28;20039;-73
2021/09/07 01:47:24;;;;;;;1.95;1.65;;;23.50;57.80;;;;;;6244342;28;20026;-73
2021/09/07 01:50:25;;;;;;;1.90;1.60;;;23.50;57.90;;;;;;6242757;28;20382;-73
2021/09/07 01:53:25;;;;;;;1.98;1.48;;;23.50;57.90;;;;;;6226227;28;20116;-73
2021/09/07 01:56:26;;;;;;;1.70;1.60;;;23.50;57.80;;;;;;6242475;28;20041;-73
2021/09/07 01:59:26;;;;;;;1.80;1.40;;;23.50;57.80;;;;;;6243448;28;20041;-73
2021/09/07 02:02:27;;;;;;;2.35;1.52;;;23.50;57.80;;;;;;6244152;28;20030;-73
2021/09/07 02:05:27;;;;;;;2.25;1.70;;;23.50;57.80;;;;;;6242086;28;20171;-74
2021/09/07 02:08:28;;;;;;;2.45;1.73;;;23.50;57.90;;;;;;6244460;28;20072;-73
2021/09/07 02:11:29;;;;;;;2.33;1.75;;;23.50;57.90;;;;;;6243348;28;20466;-73
2021/09/07 02:14:29;;;;;;;1.90;1.38;;;23.50;57.90;;;;;;6232678;28;20025;-73
2021/09/07 02:17:30;;;;;;;2.00;1.80;;;23.50;57.80;;;;;;6236686;28;20668;-73
2021/09/07 02:20:30;;;;;;;2.03;1.58;;;23.50;57.80;;;;;;6242793;28;20078;-73
2021/09/07 02:23:31;;;;;;;1.92;1.50;;;23.50;57.90;;;;;;6242033;28;20051;-73
2021/09/07 02:26:31;;;;;;;2.05;1.70;;;23.50;57.80;;;;;;6242020;28;20056;-73
2021/09/07 02:29:32;;;;;;;1.52;1.40;;;23.50;57.90;;;;;;6241666;28;20463;-73
2021/09/07 02:32:33;;;;;;;1.58;1.40;;;23.50;57.90;;;;;;6243151;28;20049;-73
2021/09/07 02:35:34;;;;;;;1.58;1.40;;;23.50;57.80;;;;;;6242940;28;20446;-73
2021/09/07 02:38:35;;;;;;;2.00;1.60;;;23.50;57.80;;;;;;6243248;28;20037;-74
2021/09/07 02:41:35;;;;;;;1.65;1.25;;;23.50;57.80;;;;;;6241452;28;20032;-73
2021/09/07 02:44:36;;;;;;;2.42;1.73;;;23.50;57.90;;;;;;6243386;28;20033;-73
2021/09/07 02:47:40;;;;;;;1.70;1.40;;;23.50;57.80;;;;;;6241424;28;20035;-73
2021/09/07 02:50:40;;;;;;;2.45;1.60;;;23.50;57.90;;;;;;6241417;28;20025;-73
2021/09/07 02:53:41;;;;;;;2.50;1.83;;;23.50;57.90;;;;;;6241140;28;20054;-73
2021/09/07 02:56:41;;;;;;;1.85;1.65;;;23.50;57.90;;;;;;6242870;28;20421;-73
2021/09/07 02:59:42;;;;;;;2.17;1.77;;;23.50;57.90;;;;;;6241204;28;20108;-73
2021/09/07 03:02:42;;;;;;;1.85;1.52;;;23.50;57.90;;;;;;6241236;28;20026;-73
2021/09/07 03:05:43;;;;;;;2.15;1.80;;;23.50;57.90;;;;;;6242547;28;20026;-73
2021/09/07 03:08:43;;;;;;;1.40;1.30;;;23.50;57.90;;;;;;6242544;28;20253;-73
2021/09/07 03:11:44;;;;;;;1.90;1.60;;;23.50;57.90;;;;;;6240720;28;20063;-73
2021/09/07 03:14:47;;;;;;;2.50;1.60;;;23.50;57.90;;;;;;6236750;28;20026;-73
2021/09/07 03:17:48;;;;;;;1.77;1.40;;;23.50;57.90;;;;;;6241102;28;20410;-73
2021/09/07 03:20:49;;;;;;;1.92;1.50;;;23.50;57.90;;;;;;6241772;28;20087;-73
2021/09/07 03:23:49;;;;;;;1.70;1.42;;;23.50;57.90;;;;;;6240930;28;20029;-73
2021/09/07 03:26:50;;;;;;;1.63;1.45;;;23.50;57.90;;;;;;6242264;28;20096;-73
2021/09/07 03:29:50;;;;;;;1.75;1.55;;;23.50;57.90;;;;;;6239365;28;20026;-73
2021/09/07 03:32:51;;;;;;;2.25;1.70;;;23.50;57.90;;;;;;6240425;28;20729;-73
2021/09/07 03:35:52;;;;;;;1.83;1.60;;;23.50;57.90;;;;;;6241798;28;20029;-73
2021/09/07 03:38:52;;;;;;;1.85;1.55;;;23.50;57.90;;;;;;6240360;28;20032;-73
2021/09/07 03:41:53;;;;;;;1.90;1.52;;;23.50;57.90;;;;;;6240341;28;20028;-73
2021/09/07 03:44:53;;;;;;;1.70;1.60;;;23.50;57.90;;;;;;6241208;28;20060;-73
2021/09/07 03:47:54;;;;;;;2.03;1.63;;;23.50;57.90;;;;;;6241374;28;20068;-73
2021/09/07 03:50:54;;;;;;;1.35;1.23;;;23.50;57.90;;;;;;6240008;28;20087;-74
2021/09/07 03:53:55;;;;;;;1.33;1.23;;;23.50;57.90;;;;;;6240447;28;20489;-73
2021/09/07 03:56:55;;;;;;;1.80;1.40;;;23.50;57.90;;;;;;6241120;28;20045;-73
2021/09/07 04:00:40;;;;;;;2.97;1.30;;;23.50;57.90;;;;;;6241251;28;20025;-73
2021/09/07 04:03:40;;;;;;;1.70;1.42;;;23.50;57.90;;;;;;6240141;28;20102;-73
2021/09/07 04:06:41;;;;;;;2.25;1.70;;;23.50;57.90;;;;;;6239863;28;20475;-74
2021/09/07 04:09:41;;;;;;;2.72;1.75;;;23.50;57.90;;;;;;6241008;28;20034;-73
2021/09/07 04:12:42;;;;;;;1.90;1.50;;;23.50;57.90;;;;;;6240944;28;20037;-74
2021/09/07 04:15:42;;;;;;;2.08;1.70;;;23.50;57.90;;;;;;6235430;28;20033;-73
2021/09/07 04:18:43;;;;;;;2.00;1.67;;;23.50;57.90;;;;;;6239846;28;20597;-73
2021/09/07 04:21:43;;;;;;;1.73;1.50;;;23.50;57.90;;;;;;6228041;28;20050;-73
2021/09/07 04:24:44;;;;;;;2.22;1.60;;;23.50;57.90;;;;;;6216293;28;20030;-73
2021/09/07 04:27:45;;;;;;;1.95;1.45;;;23.50;57.90;;;;;;6234407;28;20321;-73
2021/09/07 04:30:45;;;;;;;1.80;1.65;;;23.50;57.90;;;;;;6239103;28;20071;-73
2021/09/07 04:33:46;;;;;;;1.92;1.73;;;23.50;57.90;;;;;;6239638;28;20117;-73
2021/09/07 04:36:46;;;;;;;1.67;1.55;;;23.50;57.90;;;;;;6233355;28;20037;-73
2021/09/07 04:39:50;;;;;;;2.35;1.60;;;23.50;57.90;;;;;;6218254;28;20352;-73
2021/09/07 04:42:50;;;;;;;2.03;1.65;;;23.50;57.90;;;;;;6239638;28;20093;-73
2021/09/07 04:45:52;;;;;;;1.80;1.67;;;23.50;57.90;;;;;;6246619;28;20468;-75
2021/09/07 04:48:55;;;;;;;2.38;1.90;;;23.50;57.90;;;;;;6246020;28;20573;-73
2021/09/07 04:51:56;;;;;;;1.98;1.73;;;23.50;57.90;;;;;;6246263;28;20028;-74
2021/09/07 04:54:56;;;;;;;1.75;1.50;;;23.50;57.90;;;;;;6245627;28;20133;-73
2021/09/07 04:57:57;;;;;;;1.55;1.45;;;23.50;57.90;;;;;;6247021;28;20520;-75
2021/09/07 05:00:57;;;;;;;2.00;1.70;;;23.50;57.90;;;;;;6245506;28;20025;-75
2021/09/07 05:03:58;;;;;;;1.88;1.73;;;23.50;57.90;;;;;;6235122;28;20025;-72
2021/09/07 05:06:58;;;;;;;5.18;2.10;;;23.50;57.90;;;;;;6236836;28;20117;-73
2021/09/07 05:09:59;;;;;;;3.88;2.78;;;23.50;57.40;;;;;;6241865;28;20021;-73
2021/09/07 05:13:00;;;;;;;11.90;6.35;;;23.50;57.40;;;;;;6242872;28;20025;-73
2021/09/07 05:16:00;;;;;;;13.73;5.50;;;23.50;56.80;;;;;;6230399;28;20395;-74
2021/09/07 05:19:01;;;;;;;9.18;5.95;;;23.50;56.80;;;;;;6229783;28;20101;-73
2021/09/07 05:22:01;;;;;;;8.88;6.00;;;23.50;56.10;;;;;;6221977;28;20021;-74
2021/09/07 05:25:05;;;;;;;6.10;4.75;;;23.50;56.20;;;;;;6246684;28;20033;-74
2021/09/07 05:28:05;;;;;;;6.95;4.65;;;23.50;56.60;;;;;;6245300;28;20348;-74
2021/09/07 05:31:06;;;;;;;5.95;4.70;;;23.50;56.80;;;;;;6246016;28;20483;-74
2021/09/07 05:34:06;;;;;;;6.47;4.43;;;23.50;57.00;;;;;;6244742;28;20112;-74
2021/09/07 05:37:08;;;;;;;5.32;3.97;;;23.50;57.00;;;;;;6246328;28;20025;-74
2021/09/07 05:40:11;;;;;;;6.25;4.22;;;23.50;57.00;;;;;;6244772;28;20026;-74
2021/09/07 05:43:12;;;;;;;7.82;4.65;;;23.50;57.10;;;;;;6244715;28;20095;-73
2021/09/07 05:46:12;;;;;;;5.35;4.20;;;23.50;57.10;;;;;;6244800;28;20022;-73
2021/09/07 05:49:13;;;;;;;6.85;4.45;;;23.50;57.20;;;;;;6244693;28;20017;-74
2021/09/07 05:52:13;;;;;;;7.28;4.50;;;23.50;57.20;;;;;;6243372;28;20033;-74
2021/09/07 05:55:16;;;;;;;5.68;3.92;;;23.50;57.30;;;;;;6244233;28;20029;-74
2021/09/07 05:58:16;;;;;;;6.07;4.13;;;23.50;57.30;;;;;;6244119;28;20325;-73
2021/09/07 06:01:17;;;;;;;5.00;4.05;;;23.50;57.30;;;;;;6228066;28;20021;-74
2021/09/07 06:04:17;;;;;;;5.20;4.10;;;23.50;57.30;;;;;;6226841;28;20032;-74
2021/09/07 06:07:18;;;;;;;6.00;3.90;;;23.50;57.30;;;;;;6222136;28;20048;-73
2021/09/07 06:10:19;;;;;;;5.70;4.25;;;23.50;57.30;;;;;;6241986;28;20052;-74
2021/09/07 06:13:21;;;;;;;5.93;4.10;;;23.50;57.40;;;;;;6246265;28;20026;-74
2021/09/07 06:16:23;;;;;;;6.22;4.18;;;23.50;57.40;;;;;;6222958;28;20391;-74
2021/09/07 06:19:25;;;;;;;4.90;3.70;;;23.50;57.50;;;;;;6225468;28;20539;-74
2021/09/07 06:22:25;;;;;;;5.38;3.80;;;23.50;57.60;;;;;;6238554;28;20034;-74
2021/09/07 06:25:26;;;;;;;6.10;4.35;;;23.50;57.50;;;;;;6249820;28;20075;-74
2021/09/07 06:28:27;;;;;;;4.13;3.47;;;23.50;57.50;;;;;;6225080;28;20480;-74
2021/09/07 06:31:27;;;;;;;6.63;4.25;;;23.50;57.60;;;;;;6245865;28;20033;-74
2021/09/07 06:34:29;;;;;;;6.60;4.63;;;23.50;57.60;;;;;;6247542;28;20032;-74
2021/09/07 06:37:29;;;;;;;4.95;3.67;;;23.50;57.50;;;;;;6246216;28;20022;-74
2021/09/07 06:40:30;;;;;;;4.72;3.85;;;23.50;57.60;;;;;;6247260;28;20504;-74
2021/09/07 06:43:30;;;;;;;4.80;4.05;;;23.50;57.50;;;;;;6245641;28;20033;-74
2021/09/07 06:46:31;;;;;;;5.18;3.35;;;23.50;57.60;;;;;;6245139;28;20356;-74
2021/09/07 06:49:31;;;;;;;4.72;3.97;;;23.50;57.60;;;;;;6237482;28;20058;-74
2021/09/07 06:52:32;;;;;;;5.07;4.22;;;23.50;57.60;;;;;;6220963;28;20045;-74
2021/09/07 06:55:32;;;;;;;5.57;3.90;;;23.50;57.70;;;;;;6236263;28;20096;-74
2021/09/07 06:58:33;;;;;;;6.43;4.50;;;23.50;57.60;;;;;;6246549;28;20050;-74
2021/09/07 07:01:34;;;;;;;4.13;3.40;;;23.50;57.70;;;;;;6245375;28;20536;-74
2021/09/07 07:04:34;;;;;;;5.07;3.78;;;23.50;57.80;;;;;;6238855;28;20029;-74
2021/09/07 07:07:35;;;;;;;4.95;3.70;;;23.50;57.70;;;;;;6231963;28;20021;-74
2021/09/07 07:10:35;;;;;;;4.72;4.07;;;23.50;57.80;;;;;;6244828;28;20032;-74
2021/09/07 07:13:36;;;;;;;5.35;3.83;;;23.50;57.80;;;;;;6246727;28;20029;-74
2021/09/07 07:16:36;;;;;;;4.25;3.47;;;23.50;57.80;;;;;;6244774;28;20126;-74
2021/09/07 07:19:37;;;;;;;4.13;3.35;;;23.50;57.80;;;;;;6245046;28;20124;-73
2021/09/07 07:22:37;;;;;;;4.40;3.42;;;23.50;57.70;;;;;;6244869;28;20025;-73
2021/09/07 07:25:38;;;;;;;4.65;3.67;;;23.50;57.70;;;;;;6246250;28;20036;-74
2021/09/07 07:28:39;;;;;;;5.82;3.78;;;23.50;57.80;;;;;;6246022;28;20029;-74
2021/09/07 07:31:40;;;;;;;4.40;3.38;;;23.50;57.80;;;;;;6237045;28;20403;-74
2021/09/07 07:34:40;;;;;;;5.85;3.58;;;23.50;57.80;;;;;;6236586;28;20411;-74
2021/09/07 07:37:41;;;;;;;3.53;3.08;;;23.50;57.80;;;;;;6221793;28;20030;-73
2021/09/07 07:40:41;;;;;;;3.92;3.13;;;23.50;57.80;;;;;;6229818;28;20131;-74
2021/09/07 07:43:46;;;;;;;4.47;3.50;;;23.50;57.80;;;;;;6246341;28;20029;-74
2021/09/07 07:46:47;;;;;;;;;;;23.50;57.70;;;;;;6245119;28;20059;-74
2021/09/07 07:49:47;;;;;;;4.10;3.20;;;23.50;57.80;;;;;;6244673;28;19905;-74
2021/09/07 07:52:49;;;;;;;3.05;2.75;;;23.50;57.80;;;;;;6245658;28;20033;-74
2021/09/07 07:55:49;;;;;;;4.13;3.20;;;23.50;57.80;;;;;;6237244;28;20030;-74
2021/09/07 07:58:50;;;;;;;3.58;3.17;;;23.50;57.80;;;;;;6219919;28;20476;-74
2021/09/07 08:01:52;;;;;;;4.53;3.25;;;23.50;57.80;;;;;;6221625;28;20029;-74
2021/09/07 08:04:53;;;;;;;3.95;3.30;;;23.50;57.80;;;;;;6221118;28;20372;-74
2021/09/07 08:07:53;;;;;;;4.28;3.20;;;23.50;57.80;;;;;;6219589;28;20025;-74
2021/09/07 08:10:54;;;;;;;4.38;3.50;;;23.50;57.80;;;;;;6224312;28;20116;-74
2021/09/07 08:13:54;;;;;;;4.50;3.42;;;23.50;57.80;;;;;;6243972;28;20030;-74
2021/09/07 08:16:55;;;;;;;4.05;3.17;;;23.50;57.80;;;;;;6235420;28;20026;-73
2021/09/07 08:19:56;;;;;;;3.75;3.20;;;23.50;57.80;;;;;;6219703;28;20116;-74
2021/09/07 08:22:57;;;;;;;4.28;3.10;;;23.50;57.90;;;;;;6241347;28;20392;-74
2021/09/07 08:25:57;;;;;;;4.05;3.30;;;23.50;57.80;;;;;;6245056;28;20498;-74
2021/09/07 08:28:58;;;;;;;3.55;3.10;;;23.50;57.80;;;;;;6244436;28;20025;-74
2021/09/07 08:31:59;;;;;;;3.45;2.92;;;23.50;57.80;;;;;;6235465;28;20447;-74
2021/09/07 08:34:59;;;;;;;4.05;3.03;;;23.50;57.80;;;;;;6236331;28;20025;-74
2021/09/07 08:38:00;;;;;;;3.15;2.85;;;23.50;57.80;;;;;;6236192;28;20022;-73
2021/09/07 08:41:00;;;;;;;3.55;3.08;;;23.50;57.80;;;;;;6222111;28;20072;-74
2021/09/07 08:44:02;;;;;;;5.20;2.78;;;23.50;57.90;;;;;;6244169;28;20033;-74
2021/09/07 08:47:03;;;;;;;3.40;3.00;;;23.50;57.80;;;;;;6245669;28;20029;-74
2021/09/07 08:50:05;;;;;;;3.67;2.95;;;23.50;57.80;;;;;;6244006;28;20030;-74
2021/09/07 08:53:05;;;;;;;3.38;2.70;;;23.50;57.80;;;;;;6236103;28;20049;-74
2021/09/07 08:56:07;;;;;;;3.65;3.03;;;23.50;57.90;;;;;;6220426;28;20503;-74
2021/09/07 08:59:10;;;;;;;3.95;3.33;;;23.50;57.90;;;;;;6236482;28;20033;-74
2021/09/07 09:02:12;;;;;;;3.40;3.00;;;23.50;57.80;;;;;;6243777;28;20478;-74
2021/09/07 09:05:13;;;;;;;3.80;3.15;;;23.50;57.90;;;;;;6244034;28;20079;-74
2021/09/07 09:08:15;;;;;;;3.85;3.13;;;23.50;57.90;;;;;;6243845;28;20032;-74
2021/09/07 09:11:16;;;;;;;3.28;2.80;;;23.50;57.90;;;;;;6244085;28;20030;-74
2021/09/07 09:14:40;;;;;;;3.10;2.78;;;23.50;57.90;;;;;;6235465;28;20026;-73
2021/09/07 09:17:41;;;;;;;3.35;2.90;;;23.50;57.90;;;;;;6224880;28;20031;-74
2021/09/07 09:20:43;;;;;;;3.60;2.83;;;23.50;57.90;;;;;;6243516;28;20112;-74
2021/09/07 09:24:06;;;;;;;3.28;2.97;;;23.50;57.90;;;;;;6244765;28;20030;-74
2021/09/07 09:27:07;;;;;;;4.38;3.08;;;23.50;57.90;;;;;;6245471;28;20033;-74
2021/09/07 09:30:10;;;;;;;3.42;2.88;;;23.50;57.90;;;;;;6239959;28;20088;-74
2021/09/07 09:33:14;;;;;;;3.90;3.20;;;23.50;57.90;;;;;;6246395;28;20112;-74
2021/09/07 09:36:20;;;;;;;3.27;2.73;;;23.50;57.90;;;;;;6249055;28;20029;-74
2021/09/07 09:39:48;;;;;;;3.97;2.72;;;23.50;57.90;;;;;;6239766;28;20026;-74
2021/09/07 09:42:49;;;;;;;3.20;2.85;;;23.50;57.90;;;;;;6241463;28;20108;-73
2021/09/07 09:45:50;;;;;;;3.05;2.75;;;23.50;57.90;;;;;;6249195;28;20040;-74
2021/09/07 09:48:53;;;;;;;3.55;2.83;;;23.50;57.90;;;;;;6247398;28;20534;-74
2021/09/07 09:52:02;;;;;;;3.15;2.60;;;23.50;57.90;;;;;;6247945;28;20025;-74
2021/09/07 09:55:05;;;;;;;2.85;2.50;;;23.50;57.90;;;;;;6248523;28;20029;-74
2021/09/07 09:58:06;;;;;;;3.10;2.75;;;23.50;57.90;;;;;;6248516;28;20503;-74
2021/09/07 10:01:06;;;;;;;3.95;2.95;;;23.50;57.90;;;;;;6247500;28;20075;-73
2021/09/07 10:04:10;;;;;;;3.38;2.90;;;23.50;57.90;;;;;;6239580;28;20061;-74
2021/09/07 10:07:11;;;;;;;3.75;3.00;;;23.50;57.90;;;;;;6223909;28;20097;-74
2021/09/07 10:10:20;;;;;;;3.33;2.75;;;23.50;57.90;;;;;;6248782;28;20084;-74
2021/09/07 10:13:24;;;;;;;3.17;2.60;;;23.50;57.90;;;;;;6224123;28;20026;-74
2021/09/07 10:16:37;;;;;;;3.00;2.63;;;23.50;57.90;;;;;;6222463;28;20049;-74
2021/09/07 10:19:46;;;;;;;2.85;2.53;;;23.50;57.80;;;;;;6233755;28;20053;-74
2021/09/07 10:23:18;;;;;;;3.13;2.65;;;23.50;57.90;;;;;;6246970;28;20109;-74
2021/09/07 10:26:44;;;;;;;3.08;2.67;;;23.50;57.90;;;;;;6246829;28;20128;-74
2021/09/07 10:29:45;;;;;;;3.05;2.75;;;23.50;57.80;;;;;;6244542;28;20108;-74
2021/09/07 10:32:46;;;;;;;4.78;3.10;;;23.50;57.90;;;;;;6246767;28;20022;-74
2021/09/07 10:36:18;;;;;;;3.22;2.78;;;23.50;57.90;;;;;;6247529;28;20044;-74
2021/09/07 10:39:41;;;;;;;3.08;2.72;;;23.50;57.90;;;;;;6239975;28;20507;-74
2021/09/07 10:42:53;;;;;;;3.30;2.80;;;23.50;57.90;;;;;;6223537;28;20045;-74
2021/09/07 10:45:55;;;;;;;3.17;2.70;;;23.50;57.80;;;;;;6240487;28;20032;-74
2021/09/07 10:49:17;;;;;;;2.92;2.58;;;23.50;57.90;;;;;;6246187;28;20053;-74
2021/09/07 10:52:17;;;;;;;2.95;2.55;;;23.50;57.90;;;;;;6247797;28;20025;-74
2021/09/07 10:55:19;;;;;;;3.08;2.78;;;23.50;58.60;;;;;;6246200;28;20036;-74
2021/09/07 10:58:33;;;;;;;3.10;2.65;;;23.50;57.90;;;;;;6246316;28;20149;-74
2021/09/07 11:01:33;;;;;;;3.42;2.63;;;23.50;57.90;;;;;;6247183;28;20022;-74
2021/09/07 11:04:34;;;;;;;2.80;2.35;;;23.50;57.80;;;;;;6247233;28;20033;-74
2021/09/07 11:07:40;;;;;;;3.30;2.60;;;23.50;57.90;;;;;;6246692;28;20033;-74
2021/09/07 11:10:53;;;;;;;3.22;2.80;;;23.50;57.80;;;;;;6245644;28;20113;-74
2021/09/07 11:14:07;;;;;;;2.70;2.40;;;23.50;57.80;;;;;;6245863;28;20029;-74
2021/09/07 11:17:11;;;;;;;2.97;2.55;;;23.50;57.90;;;;;;6246886;28;20589;-74
2021/09/07 11:20:11;;;;;;;2.90;2.53;;;23.50;57.90;;;;;;6245205;28;20028;-74
2021/09/07 11:23:15;;;;;;;3.95;2.40;;;23.50;57.80;;;;;;6245551;28;20026;-74
2021/09/07 11:26:17;;;;;;;2.25;2.05;;;23.50;57.90;;;;;;6247255;28;20021;-74
2021/09/07 11:29:31;;;;;;;3.00;2.40;;;23.50;57.90;;;;;;6245165;28;20026;-74
2021/09/07 11:32:31;;;;;;;3.28;2.67;;;23.50;57.90;;;;;;6245066;28;20059;-74
2021/09/07 11:35:53;;;;;;;2.75;2.22;;;23.50;57.80;;;;;;6244727;28;20025;-74
2021/09/07 11:38:56;;;;;;;2.97;2.67;;;23.50;57.90;;;;;;6245265;28;20025;-74
2021/09/07 11:41:59;;;;;;;2.85;2.50;;;23.50;57.90;;;;;;6246048;28;20024;-74
2021/09/07 11:45:01;;;;;;;3.70;2.60;;;23.50;57.90;;;;;;6245115;28;20032;-74
2021/09/07 11:48:03;;;;;;;2.80;2.50;;;23.50;57.90;;;;;;6245988;28;20017;-74
2021/09/07 11:51:06;;;;;;;2.83;2.38;;;23.50;57.90;;;;;;6245090;28;20380;-74
2021/09/07 11:54:08;;;;;;;2.67;2.35;;;23.50;57.90;;;;;;6245951;28;20033;-74
2021/09/07 11:57:09;;;;;;;3.22;2.53;;;23.50;57.90;;;;;;6245891;28;20125;-74
2021/09/07 12:00:10;;;;;;;2.72;2.40;;;23.50;57.90;;;;;;6246092;28;20086;-74
2021/09/07 12:03:16;;;;;;;2.90;2.50;;;23.50;57.90;;;;;;6245804;28;20026;-74
2021/09/07 12:06:35;;;;;;;2.50;2.30;;;23.50;57.90;;;;;;6244580;28;20032;-74
2021/09/07 12:09:36;;;;;;;3.13;2.28;;;23.50;57.90;;;;;;6244400;28;20076;-74
2021/09/07 12:12:38;;;;;;;2.55;2.28;;;23.50;57.90;;;;;;6245230;28;20036;-74
2021/09/07 12:15:39;;;;;;;2.63;2.15;;;23.50;57.90;;;;;;6245706;28;20025;-74
2021/09/07 12:18:41;;;;;;;2.55;2.22;;;23.50;57.90;;;;;;6244380;28;20478;-73
2021/09/07 12:21:41;;;;;;;2.97;2.45;;;23.50;57.90;;;;;;6246033;28;20514;-74
2021/09/07 12:25:05;;;;;;;3.25;2.53;;;23.50;57.90;;;;;;6244376;28;20022;-73
2021/09/07 12:28:16;;;;;;;2.47;2.15;;;23.50;57.90;;;;;;6230100;28;20026;-74
2021/09/07 12:31:22;;;;;;;2.50;2.30;;;23.50;57.90;;;;;;6221077;28;20109;-74
2021/09/07 12:34:25;;;;;;;2.40;2.10;;;23.50;57.80;;;;;;6219573;28;20072;-73
2021/09/07 12:37:26;;;;;;;2.58;2.25;;;23.50;57.90;;;;;;6229467;28;20486;-74
2021/09/07 12:40:28;;;;;;;2.35;2.10;;;23.50;57.90;;;;;;6244127;28;20084;-74
2021/09/07 12:43:32;;;;;;;2.60;2.10;;;23.50;57.90;;;;;;6245957;28;20108;-74
2021/09/07 12:46:34;;;;;;;3.85;2.60;;;23.50;57.90;;;;;;6242388;28;20025;-74
2021/09/07 12:49:35;;;;;;;2.47;2.28;;;23.50;57.90;;;;;;6245406;28;20021;-74
2021/09/07 12:52:35;;;;;;;2.47;2.28;;;23.50;58.00;;;;;;6237805;28;20106;-74
2021/09/07 12:55:37;;;;;;;3.15;2.55;;;23.50;57.90;;;;;;6220640;28;20373;-74
2021/09/07 12:58:53;;;;;;;2.70;2.30;;;23.50;57.90;;;;;;6233992;28;20056;-74
2021/09/07 13:01:53;;;;;;;3.58;2.30;;;23.50;57.90;;;;;;6245361;28;20033;-74
2021/09/07 13:04:54;;;;;;;2.30;2.10;;;23.50;57.90;;;;;;6249838;28;20503;-74
2021/09/07 13:07:55;;;;;;;2.85;2.13;;;23.50;57.90;;;;;;6249844;28;20061;-74
2021/09/07 13:10:55;;;;;;;2.72;2.35;;;23.50;57.90;;;;;;6248893;28;20394;-74
2021/09/07 13:13:56;;;;;;;2.42;2.22;;;23.50;57.90;;;;;;6240289;28;20037;-74
2021/09/07 13:16:57;;;;;;;3.10;2.50;;;23.50;57.90;;;;;;6225258;28;20036;-73
2021/09/07 13:19:57;;;;;;;2.95;2.10;;;23.50;57.90;;;;;;6260993;28;20030;-74
2021/09/07 13:22:58;;;;;;;2.90;2.40;;;23.50;57.90;;;;;;6248372;28;20027;-74
2021/09/07 13:25:58;;;;;;;3.05;2.53;;;23.50;57.90;;;;;;6248051;28;20053;-74
2021/09/07 13:28:59;;;;;;;2.75;2.08;;;23.50;57.90;;;;;;6248224;28;20033;-73
2021/09/07 13:32:00;;;;;;;2.65;2.17;;;23.50;57.90;;;;;;6247704;28;20048;-74
2021/09/07 13:35:00;;;;;;;2.50;2.20;;;23.50;57.90;;;;;;6229604;28;20060;-74
2021/09/07 13:38:01;;;;;;;2.50;2.28;;;23.50;57.90;;;;;;6225072;28;20558;-74
2021/09/07 13:41:02;;;;;;;2.58;2.22;;;23.50;58.00;;;;;;6249213;28;20087;-75
2021/09/07 13:44:02;;;;;;;2.22;2.03;;;23.50;57.90;;;;;;6247796;28;20036;-74
2021/09/07 13:47:03;;;;;;;2.33;2.08;;;23.50;57.90;;;;;;6249167;28;20031;-74
2021/09/07 13:50:04;;;;;;;2.75;2.35;;;23.50;57.90;;;;;;6248596;28;20021;-74
2021/09/07 13:53:05;;;;;;;2.38;1.95;;;23.50;57.90;;;;;;6249609;28;20468;-74
2021/09/07 13:56:05;;;;;;;2.63;2.28;;;23.50;57.90;;;;;;6223207;28;20077;-74
2021/09/07 13:59:06;;;;;;;2.35;1.83;;;23.50;57.90;;;;;;6230856;28;20029;-74
2021/09/07 14:02:07;;;;;;;2.65;2.33;;;23.50;57.90;;;;;;6248752;28;20026;-74
2021/09/07 14:05:11;;;;;;;2.40;2.08;;;23.50;57.90;;;;;;6249329;28;20029;-73
2021/09/07 14:08:11;;;;;;;2.33;2.13;;;23.50;57.90;;;;;;6246533;28;20037;-73
2021/09/07 14:11:12;;;;;;;2.92;2.38;;;23.50;57.90;;;;;;6246278;28;20056;-73
2021/09/07 14:14:12;;;;;;;2.65;2.30;;;23.50;57.90;;;;;;6245362;28;20033;-73
2021/09/07 14:17:13;;;;;;;2.63;2.25;;;23.50;57.90;;;;;;6246927;28;20018;-72
2021/09/07 14:20:14;;;;;;;2.35;1.83;;;23.50;57.90;;;;;;6246210;28;20152;-73
2021/09/07 14:23:16;;;;;;;2.15;1.80;;;23.50;57.90;;;;;;6245066;28;20026;-73
2021/09/07 14:26:18;;;;;;;2.50;2.20;;;23.50;57.90;;;;;;6244832;28;20053;-73
2021/09/07 14:29:19;;;;;;;2.80;1.90;;;23.50;57.90;;;;;;6247094;28;20100;-73
2021/09/07 14:32:20;;;;;;;2.50;2.08;;;23.50;57.90;;;;;;6245064;28;20021;-73
2021/09/07 14:35:20;;;;;;;2.55;2.10;;;23.50;57.90;;;;;;6246290;28;20316;-73
2021/09/07 14:38:21;;;;;;;2.30;2.08;;;23.50;57.90;;;;;;6245009;28;20026;-73
2021/09/07 14:41:22;;;;;;;2.00;1.80;;;23.50;57.90;;;;;;6245714;28;20102;-73
2021/09/07 14:44:22;;;;;;;2.13;1.90;;;23.50;57.90;;;;;;6244516;28;20061;-72
2021/09/07 14:47:23;;;;;;;2.15;1.95;;;23.50;57.90;;;;;;6244643;28;20067;-73
2021/09/07 14:50:23;;;;;;;2.50;2.10;;;23.50;58.00;;;;;;6245329;28;20093;-73
2021/09/07 14:53:24;;;;;;;2.30;2.10;;;23.50;57.90;;;;;;6244799;28;20467;-73
2021/09/07 14:56:25;;;;;;;2.40;2.00;;;23.50;57.90;;;;;;6245245;28;20071;-73
2021/09/07 14:59:26;;;;;;;2.28;2.00;;;23.50;57.90;;;;;;6245395;28;20080;-73
2021/09/07 15:02:27;;;;;;;2.42;2.10;;;23.50;58.00;;;;;;6243921;28;20065;-73
2021/09/07 15:05:28;;;;;;;2.67;2.00;;;23.50;57.90;;;;;;6243708;28;20026;-73
2021/09/07 15:08:28;;;;;;;2.53;1.98;;;23.50;57.90;;;;;;6245945;28;20017;-73
2021/09/07 15:11:29;;;;;;;2.72;2.08;;;23.50;57.90;;;;;;6235967;28;20402;-73
2021/09/07 15:14:29;;;;;;;2.28;1.98;;;23.50;57.90;;;;;;6225551;28;20029;-73
2021/09/07 15:17:30;;;;;;;2.38;1.95;;;23.50;58.00;;;;;;6244993;28;20025;-73
2021/09/07 15:20:31;;;;;;;2.25;2.00;;;23.50;57.90;;;;;;6245356;28;20030;-73
2021/09/07 15:23:32;;;;;;;2.42;1.88;;;23.50;58.00;;;;;;6243897;28;20052;-73
2021/09/07 15:26:33;;;;;;;2.00;1.80;;;23.50;57.90;;;;;;6244795;28;20021;-73
2021/09/07 15:29:34;;;;;;;2.25;1.65;;;23.50;57.90;;;;;;6243676;28;20113;-73
2021/09/07 15:32:35;;;;;;;2.53;1.88;;;23.50;57.90;;;;;;6244878;28;20017;-73
2021/09/07 15:35:36;;;;;;;2.28;1.90;;;23.50;57.90;;;;;;6244761;28;20030;-73
2021/09/07 15:38:37;;;;;;;2.20;2.00;;;23.50;57.90;;;;;;6245529;28;20024;-73
2021/09/07 15:41:37;;;;;;;2.30;2.00;;;23.50;57.90;;;;;;6244800;28;20030;-73
2021/09/07 15:44:41;;;;;;;1.75;1.63;;;23.50;57.90;;;;;;6244751;28;20033;-73
2021/09/07 15:47:42;;;;;;;1.75;1.65;;;23.50;57.90;;;;;;6243189;28;20116;-73
2021/09/07 15:50:42;;;;;;;2.00;1.80;;;23.50;58.00;;;;;;6243215;28;20508;-72